Terminal Aerodrome Forecast
Issued by NWS Wilmington, NC

Home | Current Version | Previous Version | Text Only | Print | Product List | Glossary On
Versions: 1 2 3 4 5 6 7 8 9 10 11 12 13 14 15 16 17 18 19 20
000
FTUS42 KILM 041723
TAFILM
TAF
KILM 041723Z 0418/0518 25015G24KT P6SM VCSH SCT050
      TEMPO 0422/0501 4SM TSRA BKN035CB
     FM050100 21006KT P6SM VCSH FEW050 BKN250=

USA.gov is the U.S. government's official web portal to all federal, state and local government web resources and services.